Time;durP1;ratioP1;P1;durP2;ratioP2;P2;SDS_P1;SDS_P2;PMS_P1;PMS_P2;Temp;Humidity;BMP_temperature;BMP_pressure;BME280_temperature;BME280_humidity;BME280_pressure;Samples;Min_cycle;Max_cycle;Signal;HPM_P1;HPM_P2
2022/07/26 00:00:22;;;;;;;12.18;3.75;;;;;;;;;;5005358;28;20033;-57
2022/07/26 00:02:49;;;;;;;13.98;3.83;;;;;;;;;;4995505;28;20032;-59
2022/07/26 00:05:17;;;;;;;14.48;4.07;;;;;;;;;;5005831;28;20348;-58
2022/07/26 00:07:45;;;;;;;14.10;4.05;;;;;;;;;;5004983;28;20040;-57
2022/07/26 00:10:12;;;;;;;19.98;4.47;;;;;;;;;;5001734;28;20050;-58
2022/07/26 00:12:40;;;;;;;18.65;4.28;;;;;;;;;;5006856;28;20109;-57
2022/07/26 00:15:09;;;;;;;20.60;5.13;;;;;;;;;;5005372;28;20124;-56
2022/07/26 00:17:36;;;;;;;14.10;4.93;;;;;;;;;;5001026;28;20551;-58
2022/07/26 00:20:03;;;;;;;16.48;5.18;;;;;;;;;;4999845;28;20030;-58
2022/07/26 00:22:33;;;;;;;16.20;4.97;;;;;;;;;;5003600;28;20026;-55
2022/07/26 00:25:01;;;;;;;24.17;5.50;;;;;;;;;;4993690;28;20042;-55
2022/07/26 00:27:28;;;;;;;17.95;5.47;;;;;;;;;;5020643;28;20399;-55
2022/07/26 00:29:55;;;;;;;26.52;5.22;;;;;;;;;;5005251;28;20055;-55
2022/07/26 00:32:22;;;;;;;22.05;5.45;;;;;;;;;;5005223;28;20045;-56
2022/07/26 00:34:50;;;;;;;24.92;5.32;;;;;;;;;;5006604;28;20476;-54
2022/07/26 00:37:17;;;;;;;16.67;5.00;;;;;;;;;;5004141;28;20042;-55
2022/07/26 00:39:44;;;;;;;22.75;5.10;;;;;;;;;;4997136;28;20542;-55
2022/07/26 00:42:31;;;;;;;16.13;4.60;;;;;;;;;;5000008;28;20034;-57
2022/07/26 00:44:58;;;;;;;14.32;4.75;;;;;;;;;;5002015;28;20037;-53
2022/07/26 00:47:25;;;;;;;20.20;5.15;;;;;;;;;;5006294;28;20030;-54
2022/07/26 00:49:52;;;;;;;14.95;4.57;;;;;;;;;;4997723;28;20089;-56
2022/07/26 00:52:19;;;;;;;16.73;4.75;;;;;;;;;;5005133;28;20049;-55
2022/07/26 00:54:46;;;;;;;15.30;4.32;;;;;;;;;;5001592;28;20046;-56
2022/07/26 00:57:13;;;;;;;18.42;4.95;;;;;;;;;;5005881;28;20499;-54
2022/07/26 00:59:41;;;;;;;22.20;4.63;;;;;;;;;;5002175;28;20027;-56
2022/07/26 01:02:08;;;;;;;15.35;4.55;;;;;;;;;;5009225;28;20041;-56
2022/07/26 01:04:36;;;;;;;16.00;4.18;;;;;;;;;;5007921;28;20069;-56
2022/07/26 01:07:03;;;;;;;17.20;4.90;;;;;;;;;;5000891;28;20041;-56
2022/07/26 01:09:31;;;;;;;13.85;4.90;;;;;;;;;;5009241;28;20046;-56
2022/07/26 01:11:58;;;;;;;18.75;5.55;;;;;;;;;;5002835;28;20068;-52
2022/07/26 01:14:25;;;;;;;30.92;5.95;;;;;;;;;;5005435;28;20539;-56
2022/07/26 01:16:53;;;;;;;21.98;6.57;;;;;;;;;;5008743;28;20506;-53
2022/07/26 01:19:20;;;;;;;22.38;7.53;;;;;;;;;;5003283;28;20071;-54
2022/07/26 01:21:47;;;;;;;27.45;8.13;;;;;;;;;;5010590;28;20038;-56
2022/07/26 01:24:14;;;;;;;22.60;7.30;;;;;;;;;;5010216;28;20397;-56
2022/07/26 01:26:41;;;;;;;21.52;7.13;;;;;;;;;;5001128;28;20124;-57
2022/07/26 01:29:09;;;;;;;18.15;6.57;;;;;;;;;;5009115;28;20033;-56
2022/07/26 01:31:40;;;;;;;37.00;7.75;;;;;;;;;;5004708;28;20400;-56
2022/07/26 01:34:07;;;;;;;20.80;7.13;;;;;;;;;;5003881;28;20116;-56
2022/07/26 01:36:34;;;;;;;20.88;6.97;;;;;;;;;;5007988;28;20400;-56
2022/07/26 01:39:01;;;;;;;24.48;5.75;;;;;;;;;;5008234;28;20037;-55
2022/07/26 01:41:28;;;;;;;13.32;5.63;;;;;;;;;;5005492;28;20031;-56
2022/07/26 01:44:15;;;;;;;18.90;7.03;;;;;;;;;;5005474;28;20042;-55
2022/07/26 01:46:42;;;;;;;19.73;6.18;;;;;;;;;;5004733;28;20511;-54
2022/07/26 01:49:08;;;;;;;18.40;6.10;;;;;;;;;;5004851;28;20040;-55
2022/07/26 01:51:36;;;;;;;17.77;5.80;;;;;;;;;;5003557;28;20018;-55
2022/07/26 01:54:03;;;;;;;18.52;5.65;;;;;;;;;;5005413;28;20046;-56
2022/07/26 01:56:30;;;;;;;15.30;5.47;;;;;;;;;;5007791;28;20038;-59
2022/07/26 01:58:57;;;;;;;17.88;4.88;;;;;;;;;;5012164;28;20384;-57
2022/07/26 02:01:24;;;;;;;15.77;5.50;;;;;;;;;;5009070;28;20022;-57
2022/07/26 02:03:51;;;;;;;19.85;4.95;;;;;;;;;;5008724;28;20030;-57
2022/07/26 02:06:18;;;;;;;18.98;4.65;;;;;;;;;;5009160;28;20060;-57
2022/07/26 02:08:45;;;;;;;16.08;4.50;;;;;;;;;;5008519;28;20048;-63
2022/07/26 02:11:32;;;;;;;13.80;4.63;;;;;;;;;;5008844;28;20042;-59
2022/07/26 02:14:00;;;;;;;22.48;4.97;;;;;;;;;;5002335;28;20057;-58
2022/07/26 02:16:27;;;;;;;14.77;4.72;;;;;;;;;;5006364;28;20108;-59
2022/07/26 02:18:54;;;;;;;15.68;4.47;;;;;;;;;;5010898;28;20100;-59
2022/07/26 02:21:21;;;;;;;15.70;4.75;;;;;;;;;;5010481;28;20022;-58
2022/07/26 02:23:48;;;;;;;13.88;4.47;;;;;;;;;;5010151;28;20052;-59
2022/07/26 02:26:15;;;;;;;17.90;4.65;;;;;;;;;;5011494;28;20652;-59
2022/07/26 02:29:01;;;;;;;14.48;4.43;;;;;;;;;;5009699;28;20038;-59
2022/07/26 02:31:28;;;;;;;14.70;4.40;;;;;;;;;;5010734;28;20030;-59
2022/07/26 02:33:55;;;;;;;17.92;4.68;;;;;;;;;;5002676;28;20034;-59
2022/07/26 02:36:22;;;;;;;17.92;4.88;;;;;;;;;;5013197;28;20034;-59
2022/07/26 02:38:49;;;;;;;12.23;4.13;;;;;;;;;;5015011;28;20026;-59
2022/07/26 02:41:16;;;;;;;13.88;4.40;;;;;;;;;;5010944;28;20033;-59
2022/07/26 02:43:43;;;;;;;19.10;4.50;;;;;;;;;;5012999;28;20038;-59
2022/07/26 02:46:10;;;;;;;14.60;4.65;;;;;;;;;;5012635;28;20451;-59
2022/07/26 02:48:37;;;;;;;18.60;4.25;;;;;;;;;;5008581;28;20030;-60
2022/07/26 02:51:24;;;;;;;16.17;4.15;;;;;;;;;;5003667;28;20030;-59
2022/07/26 02:53:52;;;;;;;18.80;4.38;;;;;;;;;;4993647;28;20413;-58
2022/07/26 02:56:20;;;;;;;16.08;3.78;;;;;;;;;;4993699;28;20113;-59
2022/07/26 02:58:47;;;;;;;16.33;4.03;;;;;;;;;;4993411;28;20069;-59
2022/07/26 03:01:14;;;;;;;15.10;4.03;;;;;;;;;;4993149;28;20465;-59
2022/07/26 03:03:40;;;;;;;15.15;4.10;;;;;;;;;;4993969;28;20034;-59
2022/07/26 03:06:08;;;;;;;12.43;3.88;;;;;;;;;;4993689;28;20042;-59
2022/07/26 03:08:34;;;;;;;14.05;3.80;;;;;;;;;;4993669;28;20113;-59
2022/07/26 03:11:01;;;;;;;10.70;3.45;;;;;;;;;;4993040;28;20070;-59
2022/07/26 03:13:30;;;;;;;12.90;4.18;;;;;;;;;;4993881;28;20110;-59
2022/07/26 03:16:16;;;;;;;12.93;4.07;;;;;;;;;;4993129;28;20555;-59
2022/07/26 03:19:03;;;;;;;11.45;3.33;;;;;;;;;;4993661;28;20030;-59
2022/07/26 03:21:30;;;;;;;14.82;3.60;;;;;;;;;;4993784;28;20206;-59
2022/07/26 03:23:57;;;;;;;17.00;3.88;;;;;;;;;;4992800;28;20038;-58
2022/07/26 03:26:24;;;;;;;16.63;3.63;;;;;;;;;;4993577;28;20477;-59
2022/07/26 03:28:51;;;;;;;12.65;4.15;;;;;;;;;;4993096;28;20026;-59
2022/07/26 03:31:18;;;;;;;10.88;3.42;;;;;;;;;;4993442;28;20027;-59
2022/07/26 03:33:46;;;;;;;8.45;3.40;;;;;;;;;;4993799;28;20030;-59
2022/07/26 03:36:13;;;;;;;8.13;2.75;;;;;;;;;;4992589;28;20519;-59
2022/07/26 03:39:00;;;;;;;11.20;3.45;;;;;;;;;;4992385;28;20023;-59
2022/07/26 03:41:46;;;;;;;8.32;3.38;;;;;;;;;;4992152;28;20037;-58
2022/07/26 03:44:13;;;;;;;6.18;2.50;;;;;;;;;;4993450;28;20080;-59
2022/07/26 03:46:40;;;;;;;6.80;3.00;;;;;;;;;;4993282;28;20412;-59
2022/07/26 03:49:07;;;;;;;7.30;2.30;;;;;;;;;;4992801;28;20105;-59
2022/07/26 03:51:34;;;;;;;9.88;3.10;;;;;;;;;;4992494;28;20105;-59
2022/07/26 03:54:01;;;;;;;9.82;3.28;;;;;;;;;;4993019;28;20105;-59
2022/07/26 03:56:30;;;;;;;6.65;2.97;;;;;;;;;;4992062;28;20026;-59
2022/07/26 03:59:11;;;;;;;10.65;3.17;;;;;;;;;;4992623;28;20038;-59
2022/07/26 04:01:41;;;;;;;8.60;2.63;;;;;;;;;;4992741;28;20077;-59
2022/07/26 04:04:09;;;;;;;8.25;2.70;;;;;;;;;;4992698;28;20030;-59
2022/07/26 04:06:56;;;;;;;10.85;3.05;;;;;;;;;;4992315;28;20027;-59
2022/07/26 04:09:23;;;;;;;7.63;2.85;;;;;;;;;;4992063;28;20149;-59
2022/07/26 04:11:50;;;;;;;7.15;2.65;;;;;;;;;;4992520;28;20030;-59
2022/07/26 04:14:17;;;;;;;7.70;3.10;;;;;;;;;;4992967;28;20042;-59
2022/07/26 04:17:03;;;;;;;7.75;2.72;;;;;;;;;;4992482;28;20029;-59
2022/07/26 04:19:30;;;;;;;7.32;2.83;;;;;;;;;;4991949;28;20030;-59
2022/07/26 04:21:57;;;;;;;7.22;2.45;;;;;;;;;;4992734;28;20034;-59
2022/07/26 04:24:24;;;;;;;6.45;2.65;;;;;;;;;;4992461;28;20030;-59
2022/07/26 04:26:51;;;;;;;6.15;2.47;;;;;;;;;;4992679;28;20022;-59
2022/07/26 04:29:19;;;;;;;4.78;2.38;;;;;;;;;;4992247;28;20038;-59
2022/07/26 04:32:26;;;;;;;5.38;2.10;;;;;;;;;;4991606;28;20038;-59
2022/07/26 04:34:53;;;;;;;7.28;2.22;;;;;;;;;;4990906;28;20045;-59
2022/07/26 04:37:20;;;;;;;6.88;2.53;;;;;;;;;;4991826;28;20481;-59
2022/07/26 04:39:47;;;;;;;5.00;2.30;;;;;;;;;;4992438;28;20066;-59
2022/07/26 04:42:14;;;;;;;4.03;2.30;;;;;;;;;;4992111;28;20062;-59
2022/07/26 04:44:41;;;;;;;5.88;2.47;;;;;;;;;;4992029;28;20105;-59
2022/07/26 04:47:08;;;;;;;5.32;2.20;;;;;;;;;;4991955;28;20054;-59
2022/07/26 04:49:34;;;;;;;4.43;2.33;;;;;;;;;;4992691;28;20042;-59
2022/07/26 04:52:01;;;;;;;5.47;1.95;;;;;;;;;;4992106;28;20101;-59
2022/07/26 04:54:28;;;;;;;4.95;2.33;;;;;;;;;;4992109;28;20034;-59
2022/07/26 04:56:55;;;;;;;5.95;2.70;;;;;;;;;;4992006;28;20022;-59
2022/07/26 04:59:22;;;;;;;4.00;2.25;;;;;;;;;;4992323;28;20046;-59
2022/07/26 05:01:49;;;;;;;5.53;2.20;;;;;;;;;;4992082;28;20026;-59
2022/07/26 05:04:16;;;;;;;6.07;2.80;;;;;;;;;;4992009;28;20030;-59
2022/07/26 05:06:44;;;;;;;5.93;2.30;;;;;;;;;;4992059;28;20044;-59
2022/07/26 05:09:11;;;;;;;4.60;2.08;;;;;;;;;;4991931;28;20038;-59
2022/07/26 05:11:37;;;;;;;3.45;2.03;;;;;;;;;;4991945;28;20049;-59
2022/07/26 05:14:05;;;;;;;3.22;1.65;;;;;;;;;;4992007;28;20041;-59
2022/07/26 05:16:31;;;;;;;5.78;2.38;;;;;;;;;;4991601;28;20493;-59
2022/07/26 05:18:58;;;;;;;4.45;2.10;;;;;;;;;;4991696;28;20023;-59
2022/07/26 05:21:26;;;;;;;5.63;1.90;;;;;;;;;;4992298;28;20027;-59
2022/07/26 05:23:54;;;;;;;4.93;2.15;;;;;;;;;;4991695;28;20929;-59
2022/07/26 05:26:21;;;;;;;4.65;2.13;;;;;;;;;;4991511;28;20027;-59
2022/07/26 05:28:48;;;;;;;4.10;2.15;;;;;;;;;;4992126;28;20027;-59
2022/07/26 05:31:15;;;;;;;4.72;2.38;;;;;;;;;;4991523;28;20030;-59
2022/07/26 05:33:42;;;;;;;4.55;2.00;;;;;;;;;;4991487;28;20543;-59
2022/07/26 05:36:09;;;;;;;4.43;2.10;;;;;;;;;;4991499;28;20037;-59
2022/07/26 05:38:36;;;;;;;3.63;2.00;;;;;;;;;;4992135;28;20026;-59
2022/07/26 05:41:03;;;;;;;4.28;1.85;;;;;;;;;;4991792;28;20030;-59
2022/07/26 05:43:30;;;;;;;5.47;2.20;;;;;;;;;;4991564;28;20488;-59
2022/07/26 05:45:57;;;;;;;4.13;1.98;;;;;;;;;;4992034;28;20476;-59
2022/07/26 05:48:25;;;;;;;4.22;1.75;;;;;;;;;;4991621;28;20534;-59
2022/07/26 05:50:52;;;;;;;4.93;2.17;;;;;;;;;;4994350;28;20077;-59
2022/07/26 05:53:18;;;;;;;4.40;1.92;;;;;;;;;;4994806;28;20031;-59
2022/07/26 05:55:45;;;;;;;2.80;2.20;;;;;;;;;;4994973;28;20030;-59
2022/07/26 05:58:12;;;;;;;4.00;2.30;;;;;;;;;;4995293;28;20034;-59
2022/07/26 06:00:39;;;;;;;2.53;1.65;;;;;;;;;;4994527;28;20026;-58
2022/07/26 06:03:21;;;;;;;2.70;2.08;;;;;;;;;;4995336;28;20105;-59
2022/07/26 06:05:49;;;;;;;3.45;2.08;;;;;;;;;;4994483;28;20548;-59
2022/07/26 06:08:17;;;;;;;3.08;1.80;;;;;;;;;;4994651;28;20034;-59
2022/07/26 06:10:44;;;;;;;3.83;2.58;;;;;;;;;;4994369;28;20050;-59
2022/07/26 06:13:12;;;;;;;3.13;2.00;;;;;;;;;;4994835;28;20018;-59
2022/07/26 06:15:40;;;;;;;5.35;2.08;;;;;;;;;;4994431;28;20395;-59
2022/07/26 06:18:07;;;;;;;2.08;1.67;;;;;;;;;;4994796;28;20068;-59
2022/07/26 06:20:34;;;;;;;2.30;1.50;;;;;;;;;;4994665;28;20030;-58
2022/07/26 06:23:01;;;;;;;3.80;1.80;;;;;;;;;;4994686;28;20033;-59
2022/07/26 06:25:28;;;;;;;2.88;2.00;;;;;;;;;;4994537;28;20022;-59
2022/07/26 06:27:55;;;;;;;4.38;2.53;;;;;;;;;;4994424;28;20400;-59
2022/07/26 06:30:22;;;;;;;3.65;2.45;;;;;;;;;;4994921;28;20030;-59
2022/07/26 06:32:49;;;;;;;2.40;1.88;;;;;;;;;;4994358;28;20037;-59
2022/07/26 06:35:16;;;;;;;2.65;1.85;;;;;;;;;;4994100;28;20027;-59
2022/07/26 06:37:43;;;;;;;2.33;1.50;;;;;;;;;;4994328;28;20041;-59
2022/07/26 06:40:10;;;;;;;3.67;2.00;;;;;;;;;;4994372;28;20030;-59
2022/07/26 06:42:37;;;;;;;4.25;1.67;;;;;;;;;;4994459;28;20596;-59
2022/07/26 06:45:05;;;;;;;2.47;1.98;;;;;;;;;;4993886;28;20030;-59
2022/07/26 06:47:34;;;;;;;4.25;1.75;;;;;;;;;;4993989;28;20499;-59
2022/07/26 06:50:01;;;;;;;3.05;2.15;;;;;;;;;;4993617;28;20034;-59
2022/07/26 06:52:28;;;;;;;2.45;1.70;;;;;;;;;;4994360;28;20101;-59
2022/07/26 06:54:55;;;;;;;2.85;1.75;;;;;;;;;;4993330;28;20085;-59
2022/07/26 06:57:22;;;;;;;1.98;1.40;;;;;;;;;;4994431;28;20054;-59
2022/07/26 06:59:48;;;;;;;2.75;1.30;;;;;;;;;;4992967;28;20029;-59
2022/07/26 07:02:15;;;;;;;1.88;1.63;;;;;;;;;;4994165;28;20022;-59
2022/07/26 07:04:42;;;;;;;4.10;1.63;;;;;;;;;;4993499;28;20058;-59
2022/07/26 07:07:09;;;;;;;2.05;1.50;;;;;;;;;;4993658;28;20397;-59
2022/07/26 07:09:37;;;;;;;2.70;1.95;;;;;;;;;;4993377;28;20037;-59
2022/07/26 07:12:05;;;;;;;2.58;1.73;;;;;;;;;;4993709;28;20023;-59
2022/07/26 07:14:32;;;;;;;4.15;2.05;;;;;;;;;;4993914;28;20030;-59
2022/07/26 07:16:59;;;;;;;2.13;1.20;;;;;;;;;;4994034;28;20070;-59
2022/07/26 07:19:27;;;;;;;2.72;1.55;;;;;;;;;;4993622;28;20412;-59
2022/07/26 07:21:54;;;;;;;3.88;1.40;;;;;;;;;;4993006;28;20030;-59
2022/07/26 07:24:22;;;;;;;2.42;1.27;;;;;;;;;;4993801;28;20041;-59
2022/07/26 07:26:49;;;;;;;4.15;2.03;;;;;;;;;;4993281;28;20045;-59
2022/07/26 07:29:19;;;;;;;2.42;1.70;;;;;;;;;;4993783;28;20038;-59
2022/07/26 07:31:46;;;;;;;1.92;1.73;;;;;;;;;;4992864;28;20038;-59
2022/07/26 07:34:14;;;;;;;2.80;1.63;;;;;;;;;;4993563;28;20049;-59
2022/07/26 07:36:41;;;;;;;2.58;1.50;;;;;;;;;;4992633;28;20477;-59
2022/07/26 07:39:08;;;;;;;1.98;1.77;;;;;;;;;;4993317;28;20053;-59
2022/07/26 07:41:36;;;;;;;1.98;1.50;;;;;;;;;;4993005;28;20058;-59
2022/07/26 07:44:04;;;;;;;1.95;1.73;;;;;;;;;;4992401;28;20101;-59
2022/07/26 07:46:31;;;;;;;2.83;1.58;;;;;;;;;;4992832;28;20030;-59
2022/07/26 07:48:59;;;;;;;2.47;1.75;;;;;;;;;;4993082;28;20026;-59
2022/07/26 07:51:26;;;;;;;2.05;1.45;;;;;;;;;;4992814;28;20034;-59
2022/07/26 07:53:53;;;;;;;1.70;1.40;;;;;;;;;;4992567;28;20038;-59
2022/07/26 07:56:21;;;;;;;1.60;1.10;;;;;;;;;;4992778;28;20038;-59
2022/07/26 07:58:48;;;;;;;2.75;1.58;;;;;;;;;;4992775;28;20081;-59
2022/07/26 08:01:14;;;;;;;2.38;1.48;;;;;;;;;;4991910;28;20397;-59
2022/07/26 08:03:41;;;;;;;2.53;1.20;;;;;;;;;;4992432;28;20038;-59
2022/07/26 08:06:09;;;;;;;1.73;1.63;;;;;;;;;;4992910;28;20037;-59
2022/07/26 08:08:36;;;;;;;2.28;1.70;;;;;;;;;;4992761;28;20105;-59
2022/07/26 08:11:04;;;;;;;2.50;1.45;;;;;;;;;;4991796;28;20105;-59
2022/07/26 08:13:31;;;;;;;2.58;1.90;;;;;;;;;;4992045;28;20104;-59
2022/07/26 08:15:58;;;;;;;2.85;1.33;;;;;;;;;;4993110;28;20034;-59
2022/07/26 08:18:25;;;;;;;2.20;1.50;;;;;;;;;;4992342;28;20109;-59
2022/07/26 08:20:53;;;;;;;3.03;1.20;;;;;;;;;;4992472;28;20038;-59
2022/07/26 08:23:20;;;;;;;3.38;1.27;;;;;;;;;;4991916;28;20428;-59
2022/07/26 08:25:47;;;;;;;2.47;1.38;;;;;;;;;;4992763;28;20477;-59
2022/07/26 08:28:15;;;;;;;1.95;1.05;;;;;;;;;;4992332;28;20038;-59
2022/07/26 08:30:42;;;;;;;3.10;1.45;;;;;;;;;;4992253;28;20030;-59
2022/07/26 08:33:09;;;;;;;1.40;1.25;;;;;;;;;;4992694;28;20034;-59
2022/07/26 08:35:36;;;;;;;3.28;1.10;;;;;;;;;;4991934;28;20037;-59
2022/07/26 08:38:03;;;;;;;2.03;1.27;;;;;;;;;;4991958;28;20027;-59
2022/07/26 08:40:30;;;;;;;2.28;1.58;;;;;;;;;;4992444;28;20737;-59
2022/07/26 08:42:57;;;;;;;2.38;1.30;;;;;;;;;;4992160;28;20515;-59
2022/07/26 08:45:28;;;;;;;1.90;1.67;;;;;;;;;;4991507;28;20034;-59
2022/07/26 08:47:55;;;;;;;2.00;1.00;;;;;;;;;;4992452;28;20077;-59
2022/07/26 08:50:23;;;;;;;1.38;1.05;;;;;;;;;;4991905;28;20062;-59
2022/07/26 08:52:51;;;;;;;3.65;0.90;;;;;;;;;;4992446;28;20027;-59
2022/07/26 08:55:19;;;;;;;2.13;1.40;;;;;;;;;;4991412;28;20452;-59
2022/07/26 08:57:47;;;;;;;1.33;1.17;;;;;;;;;;4992545;28;20027;-59
2022/07/26 09:00:18;;;;;;;2.20;1.10;;;;;;;;;;4992029;28;20038;-59
2022/07/26 09:02:45;;;;;;;3.85;1.30;;;;;;;;;;4992052;28;20481;-59
2022/07/26 09:05:12;;;;;;;2.80;1.05;;;;;;;;;;4991303;28;20081;-59
2022/07/26 09:07:39;;;;;;;2.38;1.13;;;;;;;;;;4992405;28;20061;-59
2022/07/26 09:10:10;;;;;;;1.20;1.10;;;;;;;;;;4990613;28;20141;-59
2022/07/26 09:12:38;;;;;;;1.57;1.37;;;;;;;;;;4991697;28;20029;-59
2022/07/26 09:15:07;;;;;;;1.35;1.05;;;;;;;;;;4991333;28;20041;-59
2022/07/26 09:17:41;;;;;;;3.03;1.10;;;;;;;;;;4991940;28;20077;-59
2022/07/26 09:20:09;;;;;;;2.67;0.82;;;;;;;;;;4992441;28;20500;-59
2022/07/26 09:22:55;;;;;;;1.10;1.00;;;;;;;;;;4992336;28;20054;-59
2022/07/26 09:25:23;;;;;;;2.15;0.90;;;;;;;;;;4995868;28;20034;-59
2022/07/26 09:27:50;;;;;;;1.40;1.30;;;;;;;;;;4995291;28;20026;-59
2022/07/26 09:30:17;;;;;;;1.23;0.70;;;;;;;;;;4995977;28;20026;-58
2022/07/26 09:32:57;;;;;;;1.20;0.65;;;;;;;;;;4995586;28;20027;-59
2022/07/26 09:35:24;;;;;;;2.00;0.65;;;;;;;;;;4994794;28;20176;-59
2022/07/26 09:37:51;;;;;;;3.25;0.63;;;;;;;;;;4995581;28;20026;-59
2022/07/26 09:40:18;;;;;;;2.85;0.77;;;;;;;;;;4994635;28;20029;-59
2022/07/26 09:42:56;;;;;;;1.35;0.70;;;;;;;;;;4995261;28;20030;-59
2022/07/26 09:45:23;;;;;;;1.75;0.60;;;;;;;;;;4994720;28;20133;-59
2022/07/26 09:47:50;;;;;;;3.00;0.70;;;;;;;;;;4995215;28;20378;-59
2022/07/26 09:50:19;;;;;;;2.40;0.80;;;;;;;;;;4994783;28;20493;-59
2022/07/26 09:53:05;;;;;;;4.50;1.38;;;;;;;;;;4995341;28;20030;-59
2022/07/26 09:55:33;;;;;;;1.60;1.50;;;;;;;;;;4995046;28;20049;-59
2022/07/26 09:58:02;;;;;;;4.82;1.40;;;;;;;;;;4994491;28;20030;-59
2022/07/26 10:00:30;;;;;;;0.75;0.50;;;;;;;;;;4995015;28;20042;-59
2022/07/26 10:02:58;;;;;;;2.15;0.60;;;;;;;;;;4995072;28;20511;-59
2022/07/26 10:05:25;;;;;;;0.73;0.50;;;;;;;;;;4995340;28;20026;-59
2022/07/26 10:07:54;;;;;;;1.17;0.40;;;;;;;;;;5009244;28;20026;-59
2022/07/26 10:10:23;;;;;;;2.95;0.60;;;;;;;;;;4995059;28;20057;-59
2022/07/26 10:12:51;;;;;;;5.43;0.70;;;;;;;;;;4994451;28;20045;-59
2022/07/26 10:15:37;;;;;;;1.70;0.60;;;;;;;;;;4994700;28;20042;-59
2022/07/26 10:18:05;;;;;;;1.02;0.50;;;;;;;;;;4995152;28;20038;-59
2022/07/26 10:20:58;;;;;;;1.02;0.52;;;;;;;;;;4994087;28;20073;-59
2022/07/26 10:23:44;;;;;;;1.40;0.50;;;;;;;;;;4994112;28;20082;-59
2022/07/26 10:26:12;;;;;;;2.38;0.88;;;;;;;;;;4993841;28;20500;-59
2022/07/26 10:28:40;;;;;;;1.15;0.60;;;;;;;;;;4994569;28;20081;-59
2022/07/26 10:31:28;;;;;;;1.48;0.50;;;;;;;;;;4994211;28;20413;-59
2022/07/26 10:34:00;;;;;;;1.23;0.50;;;;;;;;;;4994206;28;20038;-59
2022/07/26 10:36:35;;;;;;;2.40;0.73;;;;;;;;;;4993824;28;20157;-60
2022/07/26 10:39:17;;;;;;;0.60;0.30;;;;;;;;;;4993510;28;20080;-59
2022/07/26 10:41:48;;;;;;;5.00;0.88;;;;;;;;;;4994489;28;20034;-59
2022/07/26 10:44:20;;;;;;;6.05;1.20;;;;;;;;;;4993908;28;20049;-60
2022/07/26 10:47:06;;;;;;;17.00;2.20;;;;;;;;;;4995448;28;20156;-59
2022/07/26 10:49:42;;;;;;;10.65;1.90;;;;;;;;;;5013606;28;20049;-61
2022/07/26 10:52:14;;;;;;;9.70;1.58;;;;;;;;;;5013148;28;20028;-61
2022/07/26 10:54:57;;;;;;;10.05;1.20;;;;;;;;;;5013770;28;20030;-61
2022/07/26 10:57:24;;;;;;;10.18;1.42;;;;;;;;;;5013554;28;20404;-61
2022/07/26 10:59:51;;;;;;;11.13;1.67;;;;;;;;;;5013477;28;20026;-61
2022/07/26 11:02:19;;;;;;;8.68;1.40;;;;;;;;;;5013446;28;20053;-61
2022/07/26 11:04:46;;;;;;;8.13;1.23;;;;;;;;;;5013899;28;20049;-61
2022/07/26 11:07:13;;;;;;;7.22;1.23;;;;;;;;;;5013647;28;20110;-61
2022/07/26 11:09:40;;;;;;;5.43;1.20;;;;;;;;;;5013452;28;20073;-61
2022/07/26 11:12:16;;;;;;;5.22;1.00;;;;;;;;;;5012830;28;20033;-61
2022/07/26 11:14:43;;;;;;;4.32;0.90;;;;;;;;;;5012894;28;20491;-61
2022/07/26 11:17:23;;;;;;;3.92;0.98;;;;;;;;;;5011329;28;20033;-61
2022/07/26 11:19:50;;;;;;;11.40;1.50;;;;;;;;;;5012528;28;20133;-60
2022/07/26 11:22:17;;;;;;;7.65;1.80;;;;;;;;;;5012978;28;20026;-60
2022/07/26 11:24:44;;;;;;;28.40;2.75;;;;;;;;;;5005179;28;20034;-63
2022/07/26 11:27:11;;;;;;;29.95;3.05;;;;;;;;;;5008655;28;20518;-64
2022/07/26 11:29:39;;;;;;;27.88;2.45;;;;;;;;;;5012749;28;20034;-60
2022/07/26 11:32:07;;;;;;;87.22;4.22;;;;;;;;;;5005798;28;20041;-62
2022/07/26 11:34:34;;;;;;;233.65;9.38;;;;;;;;;;5012199;28;20045;-61
2022/07/26 11:37:03;;;;;;;36.03;4.25;;;;;;;;;;5013040;28;20030;-63
2022/07/26 11:39:30;;;;;;;109.93;7.65;;;;;;;;;;5012120;28;20388;-63
2022/07/26 11:41:59;;;;;;;58.20;4.75;;;;;;;;;;5012277;28;20025;-63
2022/07/26 11:44:26;;;;;;;38.47;4.05;;;;;;;;;;5012629;28;20144;-63
2022/07/26 11:46:53;;;;;;;29.92;3.17;;;;;;;;;;5011884;28;20111;-63
2022/07/26 11:49:21;;;;;;;26.85;3.88;;;;;;;;;;5011725;28;20029;-60
2022/07/26 11:51:53;;;;;;;14.27;3.72;;;;;;;;;;5012492;28;20050;-59
2022/07/26 11:54:21;;;;;;;7.85;2.03;;;;;;;;;;5011745;28;20101;-58
2022/07/26 11:57:05;;;;;;;9.20;2.70;;;;;;;;;;5006758;28;20037;-59
2022/07/26 11:59:34;;;;;;;41.20;3.58;;;;;;;;;;4996623;28;20118;-59
2022/07/26 12:02:02;;;;;;;30.45;3.78;;;;;;;;;;4995040;28;20173;-59
2022/07/26 12:04:32;;;;;;;29.17;3.50;;;;;;;;;;4994748;28;20710;-59
2022/07/26 12:06:59;;;;;;;26.88;3.10;;;;;;;;;;5000588;28;20400;-59
2022/07/26 12:09:46;;;;;;;22.17;2.47;;;;;;;;;;5002824;28;20040;-59
2022/07/26 12:12:20;;;;;;;28.10;3.40;;;;;;;;;;5011872;28;20029;-59
2022/07/26 12:14:56;;;;;;;22.95;3.05;;;;;;;;;;5026770;28;20472;-59
2022/07/26 12:17:25;;;;;;;24.10;3.35;;;;;;;;;;5012012;28;20097;-59
2022/07/26 12:19:52;;;;;;;19.85;3.05;;;;;;;;;;5011164;28;20026;-59
2022/07/26 12:22:21;;;;;;;21.52;3.20;;;;;;;;;;5011870;28;20392;-59
2022/07/26 12:24:58;;;;;;;18.48;2.40;;;;;;;;;;5012120;28;20033;-59
2022/07/26 12:27:26;;;;;;;26.00;3.35;;;;;;;;;;5011870;28;20056;-59
2022/07/26 12:29:54;;;;;;;16.38;3.17;;;;;;;;;;5011562;28;20109;-59
2022/07/26 12:32:22;;;;;;;24.33;2.45;;;;;;;;;;5011372;28;20052;-59
2022/07/26 12:34:58;;;;;;;20.50;2.90;;;;;;;;;;5011912;28;20033;-59
2022/07/26 12:37:28;;;;;;;20.98;3.40;;;;;;;;;;5011397;28;20030;-59
2022/07/26 12:40:00;;;;;;;18.80;2.95;;;;;;;;;;5011644;28;20030;-59
2022/07/26 12:42:28;;;;;;;25.48;3.33;;;;;;;;;;5011672;28;20076;-59
2022/07/26 12:44:55;;;;;;;15.20;2.60;;;;;;;;;;5011909;28;20026;-59
2022/07/26 12:47:23;;;;;;;20.58;3.20;;;;;;;;;;5011192;28;20034;-59
2022/07/26 12:49:50;;;;;;;20.13;3.35;;;;;;;;;;5011353;28;20021;-59
2022/07/26 12:52:18;;;;;;;16.50;2.20;;;;;;;;;;5011390;28;20053;-59
2022/07/26 12:54:45;;;;;;;14.68;2.40;;;;;;;;;;5012172;28;20117;-59
2022/07/26 12:57:13;;;;;;;17.02;2.40;;;;;;;;;;5010825;28;20104;-59
2022/07/26 12:59:40;;;;;;;8.82;2.00;;;;;;;;;;5015910;28;20021;-59
2022/07/26 13:02:07;;;;;;;17.73;2.65;;;;;;;;;;5015400;28;20034;-59
2022/07/26 13:04:34;;;;;;;15.88;2.13;;;;;;;;;;5014751;28;20041;-59
2022/07/26 13:07:01;;;;;;;13.55;2.63;;;;;;;;;;5015807;28;20034;-59
2022/07/26 13:09:28;;;;;;;13.30;2.10;;;;;;;;;;5014519;28;20038;-59
2022/07/26 13:11:56;;;;;;;14.48;2.60;;;;;;;;;;5014951;28;20042;-59
2022/07/26 13:14:23;;;;;;;13.52;2.03;;;;;;;;;;5015429;28;20042;-59
2022/07/26 13:16:50;;;;;;;15.10;2.85;;;;;;;;;;5015431;28;20038;-63
2022/07/26 13:19:17;;;;;;;14.32;1.98;;;;;;;;;;5014189;28;20369;-59
2022/07/26 13:21:44;;;;;;;11.00;2.35;;;;;;;;;;5015427;28;20026;-59
2022/07/26 13:24:11;;;;;;;13.35;2.22;;;;;;;;;;5015219;28;20038;-59
2022/07/26 13:26:38;;;;;;;7.07;1.85;;;;;;;;;;5014521;28;20052;-59
2022/07/26 13:29:05;;;;;;;11.48;1.60;;;;;;;;;;5014703;28;20022;-59
2022/07/26 13:31:32;;;;;;;8.60;1.90;;;;;;;;;;5015125;28;20030;-59
2022/07/26 13:33:59;;;;;;;14.63;1.73;;;;;;;;;;5013723;28;20044;-58
2022/07/26 13:36:26;;;;;;;15.90;2.33;;;;;;;;;;5014867;28;20026;-59
2022/07/26 13:38:53;;;;;;;7.90;1.70;;;;;;;;;;5014267;28;20045;-59
2022/07/26 13:41:20;;;;;;;8.98;1.60;;;;;;;;;;5014017;28;20034;-59
2022/07/26 13:43:48;;;;;;;11.07;1.50;;;;;;;;;;5014431;28;20045;-60
2022/07/26 13:46:15;;;;;;;7.03;1.73;;;;;;;;;;5014465;28;20038;-59
2022/07/26 13:48:42;;;;;;;10.60;1.80;;;;;;;;;;5006117;28;20791;-60
2022/07/26 13:51:10;;;;;;;10.30;1.80;;;;;;;;;;5003197;28;20365;-59
2022/07/26 13:53:37;;;;;;;9.40;1.40;;;;;;;;;;5008301;28;20049;-59
2022/07/26 13:56:04;;;;;;;11.93;1.55;;;;;;;;;;5003892;28;20137;-60
2022/07/26 13:58:31;;;;;;;9.02;1.80;;;;;;;;;;5010706;28;20049;-59
2022/07/26 14:00:59;;;;;;;10.55;1.65;;;;;;;;;;5003872;28;20029;-59
2022/07/26 14:03:26;;;;;;;9.20;1.75;;;;;;;;;;5006579;28;20034;-59
2022/07/26 14:05:53;;;;;;;8.38;1.67;;;;;;;;;;5004350;28;20050;-60
2022/07/26 14:08:20;;;;;;;9.88;1.67;;;;;;;;;;5002639;28;20034;-59
2022/07/26 14:10:47;;;;;;;8.18;1.70;;;;;;;;;;5005090;28;20134;-59
2022/07/26 14:13:14;;;;;;;9.55;1.45;;;;;;;;;;5006989;28;20496;-59
2022/07/26 14:15:40;;;;;;;8.20;1.52;;;;;;;;;;5009356;28;20048;-59
2022/07/26 14:18:08;;;;;;;11.52;1.65;;;;;;;;;;5011205;28;20018;-59
2022/07/26 14:20:35;;;;;;;10.45;1.65;;;;;;;;;;5003911;28;20380;-60
2022/07/26 14:23:02;;;;;;;13.88;1.63;;;;;;;;;;5003969;28;20045;-59
2022/07/26 14:25:29;;;;;;;11.48;1.63;;;;;;;;;;5008229;28;20125;-59
2022/07/26 14:27:56;;;;;;;5.20;1.70;;;;;;;;;;5011863;28;20031;-59
2022/07/26 14:30:23;;;;;;;19.05;2.80;;;;;;;;;;5002618;28;20042;-59
2022/07/26 14:32:50;;;;;;;21.80;2.55;;;;;;;;;;5007879;28;20069;-59
2022/07/26 14:35:18;;;;;;;16.25;1.60;;;;;;;;;;5004483;28;20088;-59
2022/07/26 14:37:45;;;;;;;14.88;2.08;;;;;;;;;;4996891;28;20034;-58
2022/07/26 14:40:13;;;;;;;19.20;2.03;;;;;;;;;;5004919;28;20049;-59
2022/07/26 14:42:40;;;;;;;21.88;2.03;;;;;;;;;;5005675;28;20465;-58
2022/07/26 14:45:08;;;;;;;20.90;1.98;;;;;;;;;;5001036;28;20034;-59